createdAt,value
2023-12-15T00:01:15.610Z,7.60
2023-12-15T00:03:47.739Z,6.47
2023-12-15T00:06:19.843Z,5.50
2023-12-15T00:08:51.874Z,4.57
2023-12-15T00:11:23.938Z,6.10
2023-12-15T00:13:55.872Z,7.32
2023-12-15T00:16:27.906Z,7.53
2023-12-15T00:19:00.004Z,8.75
2023-12-15T00:21:32.061Z,8.25
2023-12-15T00:24:05.727Z,8.73
2023-12-15T00:26:37.734Z,9.27
2023-12-15T00:29:09.834Z,8.45
2023-12-15T00:31:41.838Z,9.00
2023-12-15T00:34:13.869Z,7.47
2023-12-15T00:36:45.943Z,4.82
2023-12-15T00:39:18.167Z,3.45
2023-12-15T00:41:50.133Z,2.80
2023-12-15T00:44:22.156Z,3.00
2023-12-15T00:46:54.261Z,2.22
2023-12-15T00:49:26.438Z,2.10
2023-12-15T00:51:59.060Z,1.67
2023-12-15T00:54:30.985Z,1.38
2023-12-15T00:57:02.936Z,1.27
2023-12-15T00:59:35.017Z,1.17
2023-12-15T01:02:09.276Z,1.30
2023-12-15T01:04:41.573Z,1.58
2023-12-15T01:07:13.518Z,1.50
2023-12-15T01:09:45.456Z,2.00
2023-12-15T01:12:17.409Z,1.83
2023-12-15T01:14:49.639Z,1.73
2023-12-15T01:17:21.712Z,3.97
2023-12-15T01:19:53.968Z,4.22
2023-12-15T01:22:25.955Z,4.63
2023-12-15T01:24:57.968Z,6.07
2023-12-15T01:27:29.984Z,6.63
2023-12-15T01:30:02.103Z,7.43
2023-12-15T01:32:34.211Z,6.38
2023-12-15T01:35:06.965Z,6.30
2023-12-15T01:37:39.200Z,5.90
2023-12-15T01:40:11.780Z,5.70
2023-12-15T01:42:43.688Z,5.25
2023-12-15T01:45:15.702Z,6.00
2023-12-15T01:47:48.015Z,6.30
2023-12-15T01:50:20.087Z,5.90
2023-12-15T01:52:52.170Z,5.80
2023-12-15T01:55:24.202Z,5.90
2023-12-15T01:57:56.155Z,5.90
2023-12-15T02:00:28.384Z,6.30
2023-12-15T02:03:00.301Z,6.68
2023-12-15T02:05:32.308Z,6.45
2023-12-15T02:08:04.547Z,7.00
2023-12-15T02:10:39.883Z,6.88
2023-12-15T02:13:11.853Z,7.80
2023-12-15T02:15:43.968Z,7.45
2023-12-15T02:18:16.039Z,8.60
2023-12-15T02:20:48.102Z,9.10
2023-12-15T02:23:20.042Z,8.95
2023-12-15T02:25:52.098Z,9.00
2023-12-15T02:28:24.068Z,9.68
2023-12-15T02:30:56.092Z,8.32
2023-12-15T02:33:28.315Z,8.30
2023-12-15T02:36:00.405Z,8.15
2023-12-15T02:38:32.319Z,9.30
2023-12-15T02:41:04.574Z,9.20
2023-12-15T02:43:36.498Z,8.15
2023-12-15T02:46:08.835Z,8.18
2023-12-15T02:48:40.907Z,8.77
2023-12-15T02:51:32.135Z,7.88
2023-12-15T02:54:04.597Z,7.38
2023-12-15T02:56:36.624Z,9.32
2023-12-15T02:59:08.547Z,7.40
2023-12-15T03:01:40.505Z,7.25
2023-12-15T03:04:12.446Z,8.07
2023-12-15T03:06:44.516Z,6.88
2023-12-15T03:09:16.436Z,6.53
2023-12-15T03:11:48.412Z,6.78
2023-12-15T03:14:20.425Z,6.38
2023-12-15T03:16:52.439Z,5.30
2023-12-15T03:19:24.566Z,4.30
2023-12-15T03:21:56.535Z,4.40
2023-12-15T03:24:28.472Z,3.97
2023-12-15T03:27:00.432Z,3.28
2023-12-15T03:29:32.337Z,3.47
2023-12-15T03:32:04.755Z,4.13
2023-12-15T03:34:37.379Z,4.40
2023-12-15T03:37:12.156Z,4.50
2023-12-15T03:39:44.730Z,4.47
2023-12-15T03:42:16.669Z,4.82
2023-12-15T03:44:48.546Z,5.35
2023-12-15T03:47:20.479Z,5.72
2023-12-15T03:49:52.507Z,5.35
2023-12-15T03:52:24.467Z,6.32
2023-12-15T03:54:57.700Z,5.05
2023-12-15T03:57:29.725Z,5.55
2023-12-15T04:00:01.795Z,5.18
2023-12-15T04:02:36.729Z,5.43
2023-12-15T04:05:08.938Z,6.18
2023-12-15T04:07:41.054Z,5.10
2023-12-15T04:10:13.148Z,4.63
2023-12-15T04:12:45.244Z,4.53
2023-12-15T04:15:19.644Z,3.88
2023-12-15T04:17:52.005Z,4.03
2023-12-15T04:20:24.172Z,3.67
2023-12-15T04:22:56.087Z,3.17
2023-12-15T04:25:28.105Z,1.70
2023-12-15T04:28:00.276Z,1.63
2023-12-15T04:30:32.191Z,0.80
2023-12-15T04:33:04.278Z,1.02
2023-12-15T04:35:36.433Z,0.85
2023-12-15T04:38:08.500Z,0.60
2023-12-15T04:40:40.587Z,1.08
2023-12-15T04:43:12.633Z,0.82
2023-12-15T04:45:44.627Z,0.80
2023-12-15T04:48:16.906Z,0.90
2023-12-15T04:50:50.612Z,0.73
2023-12-15T04:53:22.744Z,0.82
2023-12-15T04:55:54.811Z,0.60
2023-12-15T04:58:26.827Z,0.80
2023-12-15T05:00:58.791Z,0.60
2023-12-15T05:03:32.470Z,0.60
2023-12-15T05:06:04.873Z,0.60
2023-12-15T05:08:36.991Z,0.70
2023-12-15T05:11:09.002Z,0.60
2023-12-15T05:13:41.052Z,0.70
2023-12-15T05:16:13.022Z,0.80
2023-12-15T05:18:45.109Z,0.73
2023-12-15T05:21:17.160Z,0.60
2023-12-15T05:23:49.845Z,0.70
2023-12-15T05:26:21.794Z,0.85
2023-12-15T05:28:55.211Z,0.80
2023-12-15T05:31:28.147Z,0.95
2023-12-15T05:34:00.352Z,0.80
2023-12-15T05:36:32.577Z,0.80
2023-12-15T05:39:04.669Z,1.05
2023-12-15T05:41:45.028Z,0.80
2023-12-15T05:44:17.489Z,1.00
2023-12-15T05:46:50.625Z,1.00
2023-12-15T05:49:22.720Z,1.30
2023-12-15T05:51:54.785Z,1.07
2023-12-15T05:54:26.716Z,1.00
2023-12-15T05:56:58.660Z,1.20
2023-12-15T05:59:30.721Z,1.10
2023-12-15T06:02:02.740Z,1.50
2023-12-15T06:04:34.663Z,1.80
2023-12-15T06:07:06.713Z,1.80
2023-12-15T06:09:38.944Z,2.10
2023-12-15T06:12:10.984Z,2.08
2023-12-15T06:14:42.979Z,1.70
2023-12-15T06:17:14.973Z,1.40
2023-12-15T06:19:46.922Z,1.23
2023-12-15T06:22:18.809Z,1.20
2023-12-15T06:24:50.843Z,1.58
2023-12-15T06:27:22.804Z,1.90
2023-12-15T06:29:54.768Z,1.50
2023-12-15T06:32:27.074Z,1.48
2023-12-15T06:34:59.038Z,2.20
2023-12-15T06:37:30.965Z,2.13
2023-12-15T06:40:04.665Z,2.60
2023-12-15T06:42:36.559Z,2.03
2023-12-15T06:45:10.017Z,2.40
2023-12-15T06:47:42.388Z,2.75
2023-12-15T06:50:14.562Z,2.63
2023-12-15T06:52:46.567Z,2.40
2023-12-15T06:55:18.519Z,2.30
2023-12-15T06:57:53.267Z,2.00
2023-12-15T07:00:26.513Z,1.77
2023-12-15T07:02:58.463Z,2.20
2023-12-15T07:05:30.341Z,2.10
2023-12-15T07:08:06.053Z,2.35
2023-12-15T07:10:38.116Z,2.17
2023-12-15T07:13:10.156Z,2.40
2023-12-15T07:15:42.611Z,2.28
2023-12-15T07:18:14.660Z,3.13
2023-12-15T07:20:46.732Z,3.80
2023-12-15T07:23:18.783Z,4.20
2023-12-15T07:25:50.678Z,3.30
2023-12-15T07:28:22.613Z,3.45
2023-12-15T07:30:54.607Z,3.60
2023-12-15T07:35:58.609Z,2.92
2023-12-15T07:38:30.658Z,2.75
2023-12-15T07:41:02.676Z,3.17
2023-12-15T07:43:34.631Z,3.28
2023-12-15T07:46:07.033Z,3.28
2023-12-15T07:48:39.043Z,2.88
2023-12-15T07:51:21.755Z,3.13
2023-12-15T07:53:53.748Z,3.17
2023-12-15T07:56:27.606Z,2.70
2023-12-15T07:58:59.760Z,18.52
2023-12-15T08:01:31.848Z,3.95
2023-12-15T08:04:04.164Z,3.63
2023-12-15T08:06:38.528Z,3.75
2023-12-15T08:09:10.892Z,5.85
2023-12-15T08:11:42.943Z,6.63
2023-12-15T08:14:15.091Z,5.40
2023-12-15T08:16:47.014Z,5.25
2023-12-15T08:19:19.152Z,4.53
2023-12-15T08:21:52.654Z,4.00
2023-12-15T08:24:24.738Z,3.22
2023-12-15T08:26:58.799Z,3.67
2023-12-15T08:29:30.861Z,4.05
2023-12-15T08:32:02.939Z,7.30
2023-12-15T08:34:35.108Z,4.65
2023-12-15T08:37:07.394Z,4.78
2023-12-15T08:39:39.277Z,3.97
2023-12-15T08:42:11.286Z,4.30
2023-12-15T08:44:45.502Z,4.30
2023-12-15T08:47:17.665Z,4.03
2023-12-15T08:49:49.581Z,4.65
2023-12-15T08:52:21.545Z,4.13
2023-12-15T08:54:53.450Z,3.75
2023-12-15T08:57:25.516Z,4.18
2023-12-15T08:59:57.675Z,4.40
2023-12-15T09:02:29.901Z,6.07
2023-12-15T09:05:06.362Z,8.98
2023-12-15T09:07:45.948Z,7.45
2023-12-15T09:10:18.827Z,6.57
2023-12-15T09:12:51.234Z,5.20
2023-12-15T09:15:23.288Z,4.90
2023-12-15T09:17:55.406Z,5.80
2023-12-15T09:20:28.273Z,5.30
2023-12-15T09:23:00.339Z,5.13
2023-12-15T09:25:32.253Z,5.68
2023-12-15T09:28:06.781Z,4.50
2023-12-15T09:30:38.946Z,4.60
2023-12-15T09:33:11.997Z,4.25
2023-12-15T09:35:44.079Z,4.35
2023-12-15T09:38:16.114Z,5.03
2023-12-15T09:40:48.114Z,5.60
2023-12-15T09:43:20.207Z,5.75
2023-12-15T09:45:52.717Z,5.80
2023-12-15T09:48:26.693Z,6.82
2023-12-15T09:51:04.272Z,5.93
2023-12-15T09:53:38.410Z,5.32
2023-12-15T09:56:11.163Z,4.72
2023-12-15T09:58:44.057Z,5.25
2023-12-15T10:01:16.259Z,5.10
2023-12-15T10:03:48.365Z,5.22
2023-12-15T10:06:20.684Z,4.90
2023-12-15T10:09:01.292Z,5.35
2023-12-15T10:11:35.115Z,4.53
2023-12-15T10:14:10.930Z,4.93
2023-12-15T10:16:43.168Z,5.57
2023-12-15T10:19:15.166Z,5.68
2023-12-15T10:21:48.524Z,5.75
2023-12-15T10:24:22.133Z,5.43
2023-12-15T10:26:54.208Z,5.38
2023-12-15T10:29:26.320Z,6.45
2023-12-15T10:31:59.534Z,5.75
2023-12-15T10:34:32.155Z,6.13
2023-12-15T10:37:04.978Z,5.95
2023-12-15T10:39:37.027Z,6.05
2023-12-15T10:42:09.287Z,5.63
2023-12-15T10:44:41.511Z,4.80
2023-12-15T10:47:13.704Z,4.35
2023-12-15T10:49:52.936Z,4.75
2023-12-15T10:52:26.275Z,4.97
2023-12-15T10:55:00.844Z,5.20
2023-12-15T10:57:33.115Z,5.45
2023-12-15T11:00:06.984Z,5.75
2023-12-15T11:02:40.796Z,6.40
2023-12-15T11:05:13.629Z,5.22
2023-12-15T11:07:46.540Z,5.20
2023-12-15T11:10:18.539Z,5.60
2023-12-15T11:12:50.523Z,5.40
2023-12-15T11:15:27.868Z,5.35
2023-12-15T11:18:01.292Z,5.43
2023-12-15T11:20:35.113Z,5.78
2023-12-15T11:23:08.818Z,6.13
2023-12-15T11:25:47.238Z,6.70
2023-12-15T11:28:21.850Z,6.68
2023-12-15T11:30:54.497Z,7.03
2023-12-15T11:33:39.728Z,5.65
2023-12-15T11:36:14.935Z,5.45
2023-12-15T11:38:50.147Z,5.70
2023-12-15T11:41:24.435Z,5.75
2023-12-15T11:43:56.633Z,6.32
2023-12-15T11:46:28.597Z,6.47
2023-12-15T11:49:01.774Z,6.30
2023-12-15T11:51:35.444Z,6.13
2023-12-15T11:54:08.752Z,5.50
2023-12-15T11:56:40.656Z,5.95
2023-12-15T11:59:12.994Z,6.30
2023-12-15T12:01:46.218Z,6.63
2023-12-15T12:04:20.172Z,6.68
2023-12-15T12:06:52.739Z,7.15
2023-12-15T12:09:25.819Z,6.95
2023-12-15T12:11:58.612Z,7.07
2023-12-15T12:14:30.628Z,6.80
2023-12-15T12:17:03.452Z,7.40
2023-12-15T12:19:40.532Z,9.45
2023-12-15T12:22:13.565Z,7.22
2023-12-15T12:24:45.578Z,7.88
2023-12-15T12:27:37.360Z,7.22
2023-12-15T12:30:15.000Z,7.40
2023-12-15T12:32:48.669Z,8.52
2023-12-15T12:35:21.005Z,8.02
2023-12-15T12:37:53.030Z,7.82
2023-12-15T12:40:25.020Z,8.07
2023-12-15T12:42:59.545Z,9.10
2023-12-15T12:45:37.754Z,13.80
2023-12-15T12:48:10.390Z,9.80
2023-12-15T12:50:42.585Z,9.90
2023-12-15T12:53:15.772Z,9.90
2023-12-15T12:55:47.752Z,10.18
2023-12-15T12:58:19.684Z,10.68
2023-12-15T13:00:53.395Z,9.57
2023-12-15T13:03:25.677Z,11.88
2023-12-15T13:05:58.392Z,9.82
2023-12-15T13:08:31.976Z,10.30
2023-12-15T13:11:04.312Z,10.02
2023-12-15T13:13:36.293Z,10.05
2023-12-15T13:16:08.635Z,9.73
2023-12-15T13:18:41.068Z,9.18
2023-12-15T13:21:13.108Z,8.60
2023-12-15T13:23:45.082Z,8.60
2023-12-15T13:26:17.083Z,9.93
2023-12-15T13:28:49.218Z,9.73
2023-12-15T13:31:21.531Z,12.98
2023-12-15T13:33:53.694Z,8.43
2023-12-15T13:36:25.888Z,9.70
2023-12-15T13:38:58.096Z,9.75
2023-12-15T13:41:30.460Z,9.07
2023-12-15T13:44:02.472Z,8.65
2023-12-15T13:46:34.435Z,10.48
2023-12-15T13:49:07.159Z,11.30
2023-12-15T13:51:40.254Z,10.48
2023-12-15T13:54:12.685Z,10.82
2023-12-15T13:56:44.999Z,11.38
2023-12-15T13:59:17.007Z,11.35
2023-12-15T14:01:49.152Z,11.25
2023-12-15T14:04:21.212Z,10.85
2023-12-15T14:06:54.578Z,11.57
2023-12-15T14:09:29.085Z,11.20
2023-12-15T14:12:01.234Z,12.82
2023-12-15T14:14:33.236Z,12.63
2023-12-15T14:17:07.287Z,12.88
2023-12-15T14:19:39.441Z,13.43
2023-12-15T14:22:13.467Z,12.30
2023-12-15T14:24:47.641Z,10.27
2023-12-15T14:27:19.698Z,10.63
2023-12-15T14:29:51.746Z,13.07
2023-12-15T14:32:24.136Z,16.05
2023-12-15T14:34:56.958Z,16.23
2023-12-15T14:37:30.382Z,14.85
2023-12-15T14:40:02.366Z,14.27
2023-12-15T14:42:34.575Z,16.00
2023-12-15T14:45:06.898Z,15.70
2023-12-15T14:47:39.041Z,16.83
2023-12-15T14:50:11.398Z,15.20
2023-12-15T14:52:44.051Z,13.70
2023-12-15T14:55:16.031Z,13.07
2023-12-15T14:57:50.265Z,14.20
2023-12-15T15:00:22.241Z,14.75
2023-12-15T15:02:54.221Z,12.43
2023-12-15T15:05:26.325Z,13.98
2023-12-15T15:07:58.312Z,15.07
2023-12-15T15:10:30.599Z,15.02
2023-12-15T15:13:03.436Z,15.88
2023-12-15T15:15:35.359Z,16.88
2023-12-15T15:18:07.456Z,41.40
2023-12-15T15:20:39.485Z,52.80
2023-12-15T15:23:11.536Z,25.40
2023-12-15T15:25:43.606Z,13.02
2023-12-15T15:28:15.589Z,12.93
2023-12-15T15:30:47.665Z,11.85
2023-12-15T15:33:19.715Z,12.13
2023-12-15T15:35:51.819Z,16.73
2023-12-15T15:38:27.832Z,13.18
2023-12-15T15:40:59.971Z,12.27
2023-12-15T15:43:32.005Z,12.70
2023-12-15T15:46:04.867Z,12.27
2023-12-15T15:48:36.992Z,17.00
2023-12-15T15:51:09.064Z,18.65
2023-12-15T15:53:40.990Z,15.13
2023-12-15T15:56:12.968Z,16.02
2023-12-15T15:58:45.197Z,14.70
2023-12-15T16:01:35.942Z,14.77
2023-12-15T16:04:14.575Z,19.00
2023-12-15T16:06:46.597Z,18.35
2023-12-15T16:09:18.908Z,17.85
2023-12-15T16:11:50.979Z,16.92
2023-12-15T16:14:22.947Z,16.52
2023-12-15T16:16:54.900Z,19.02
2023-12-15T16:19:27.352Z,22.40
2023-12-15T16:21:59.414Z,27.63
2023-12-15T16:24:31.414Z,20.45
2023-12-15T16:27:03.540Z,17.65
2023-12-15T16:29:35.599Z,15.23
2023-12-15T16:32:07.986Z,13.43
2023-12-15T16:34:40.017Z,12.40
2023-12-15T16:37:12.094Z,11.73
2023-12-15T16:39:47.095Z,12.15
2023-12-15T16:42:20.356Z,12.80
2023-12-15T16:44:53.058Z,12.50
2023-12-15T16:47:25.034Z,12.35
2023-12-15T16:49:57.101Z,10.90
2023-12-15T16:52:29.120Z,10.77
2023-12-15T16:55:01.163Z,9.98
2023-12-15T16:57:33.214Z,10.32
2023-12-15T17:00:05.799Z,10.20
2023-12-15T17:02:37.779Z,11.75
2023-12-15T17:05:09.941Z,10.45
2023-12-15T17:07:42.797Z,11.77
2023-12-15T17:10:18.293Z,9.43
2023-12-15T17:12:50.329Z,8.77
2023-12-15T17:15:22.446Z,8.13
2023-12-15T17:18:02.546Z,8.10
2023-12-15T17:20:39.226Z,8.18
2023-12-15T17:23:11.383Z,8.57
2023-12-15T17:25:43.552Z,8.30
2023-12-15T17:28:17.729Z,8.73
2023-12-15T17:30:49.818Z,7.40
2023-12-15T17:33:22.521Z,7.40
2023-12-15T17:35:54.577Z,6.93
2023-12-15T17:38:26.927Z,6.85
2023-12-15T17:40:58.848Z,6.47
2023-12-15T17:43:30.809Z,8.93
2023-12-15T17:46:02.885Z,6.78
2023-12-15T17:48:36.813Z,6.80
2023-12-15T17:51:09.115Z,6.35
2023-12-15T17:53:41.080Z,6.93
2023-12-15T17:56:13.491Z,7.07
2023-12-15T17:58:46.552Z,6.75
2023-12-15T18:01:18.892Z,6.47
2023-12-15T18:03:51.086Z,6.93
2023-12-15T18:06:23.235Z,6.63
2023-12-15T18:08:55.282Z,6.47
2023-12-15T18:11:30.243Z,6.63
2023-12-15T18:14:02.940Z,6.22
2023-12-15T18:16:34.866Z,6.35
2023-12-15T18:19:07.137Z,7.43
2023-12-15T18:21:42.248Z,6.22
2023-12-15T18:24:14.393Z,6.80
2023-12-15T18:26:47.886Z,5.70
2023-12-15T18:29:20.174Z,5.90
2023-12-15T18:31:52.258Z,6.05
2023-12-15T18:34:24.391Z,6.05
2023-12-15T18:36:59.506Z,7.43
2023-12-15T18:39:31.652Z,5.97
2023-12-15T18:42:04.847Z,6.28
2023-12-15T18:44:38.239Z,5.47
2023-12-15T18:47:11.203Z,5.25
2023-12-15T18:49:43.649Z,5.47
2023-12-15T18:52:20.268Z,5.80
2023-12-15T18:54:52.573Z,6.18
2023-12-15T18:57:27.423Z,5.13
2023-12-15T19:00:00.604Z,5.50
2023-12-15T19:02:32.694Z,5.15
2023-12-15T19:05:05.281Z,5.20
2023-12-15T19:07:37.690Z,5.43
2023-12-15T19:10:10.135Z,5.13
2023-12-15T19:12:46.283Z,6.90
2023-12-15T19:15:20.201Z,6.32
2023-12-15T19:17:52.393Z,6.80
2023-12-15T19:20:24.423Z,6.50
2023-12-15T19:22:56.499Z,6.95
2023-12-15T19:25:28.775Z,6.13
2023-12-15T19:28:00.796Z,6.70
2023-12-15T19:30:32.807Z,6.75
2023-12-15T19:33:04.850Z,5.53
2023-12-15T19:35:36.913Z,6.88
2023-12-15T19:38:08.926Z,6.45
2023-12-15T19:40:40.862Z,9.75
2023-12-15T19:43:12.883Z,8.80
2023-12-15T19:45:45.135Z,6.70
2023-12-15T19:48:17.183Z,6.63
2023-12-15T19:50:49.121Z,9.32
2023-12-15T19:53:21.775Z,8.23
2023-12-15T19:55:53.690Z,5.57
2023-12-15T19:58:25.597Z,5.65
2023-12-15T20:00:57.541Z,8.05
2023-12-15T20:03:29.521Z,7.88
2023-12-15T20:06:04.406Z,8.57
2023-12-15T20:08:37.252Z,5.32
2023-12-15T20:11:09.165Z,5.53
2023-12-15T20:13:42.454Z,5.50
2023-12-15T20:16:18.636Z,5.22
2023-12-15T20:18:52.524Z,5.53
2023-12-15T20:21:24.523Z,4.53
2023-12-15T20:23:57.370Z,4.80
2023-12-15T20:26:29.263Z,4.05
2023-12-15T20:29:05.032Z,4.70
2023-12-15T20:31:37.129Z,4.07
2023-12-15T20:34:09.321Z,3.97
2023-12-15T20:36:41.368Z,4.05
2023-12-15T20:39:16.802Z,4.38
2023-12-15T20:41:49.030Z,3.85
2023-12-15T20:44:21.137Z,3.72
2023-12-15T20:46:53.162Z,5.47
2023-12-15T20:49:26.384Z,4.57
2023-12-15T20:51:58.505Z,3.78
2023-12-15T20:54:30.511Z,3.80
2023-12-15T20:57:02.433Z,3.70
2023-12-15T20:59:34.307Z,3.70
2023-12-15T21:02:06.643Z,4.10
2023-12-15T21:04:39.960Z,3.95
2023-12-15T21:07:12.664Z,3.70
2023-12-15T21:09:44.680Z,4.63
2023-12-15T21:12:16.617Z,4.50
2023-12-15T21:14:48.678Z,4.10
2023-12-15T21:17:20.631Z,3.38
2023-12-15T21:19:52.790Z,3.40
2023-12-15T21:22:24.813Z,3.17
2023-12-15T21:24:56.911Z,3.03
2023-12-15T21:27:28.859Z,3.10
2023-12-15T21:30:01.376Z,3.03
2023-12-15T21:32:33.310Z,2.95
2023-12-15T21:35:05.789Z,2.85
2023-12-15T21:37:37.995Z,2.88
2023-12-15T21:40:10.476Z,2.63
2023-12-15T21:42:42.484Z,2.80
2023-12-15T21:45:14.623Z,2.50
2023-12-15T21:47:47.555Z,2.80
2023-12-15T21:50:19.628Z,2.58
2023-12-15T21:52:51.876Z,2.75
2023-12-15T21:55:23.882Z,2.58
2023-12-15T21:57:55.948Z,2.75
2023-12-15T22:00:27.913Z,2.53
2023-12-15T22:03:00.665Z,3.10
2023-12-15T22:05:32.601Z,3.05
2023-12-15T22:08:04.775Z,2.33
2023-12-15T22:10:36.762Z,2.58
2023-12-15T22:13:08.964Z,2.47
2023-12-15T22:15:40.943Z,2.60
2023-12-15T22:18:13.065Z,2.50
2023-12-15T22:20:45.113Z,2.55
2023-12-15T22:23:17.049Z,2.72
2023-12-15T22:25:49.041Z,2.70
2023-12-15T22:28:21.354Z,2.67
2023-12-15T22:30:53.396Z,2.75
2023-12-15T22:33:26.698Z,2.70
2023-12-15T22:35:58.966Z,2.92
2023-12-15T22:38:30.986Z,2.83
2023-12-15T22:41:03.897Z,2.92
2023-12-15T22:43:35.837Z,2.75
2023-12-15T22:46:08.043Z,2.53
2023-12-15T22:48:42.506Z,3.00
2023-12-15T22:51:14.861Z,2.85
2023-12-15T22:53:46.881Z,2.60
2023-12-15T22:56:18.866Z,2.60
2023-12-15T22:58:50.861Z,2.42
2023-12-15T23:01:22.922Z,2.88
2023-12-15T23:03:55.045Z,2.92
2023-12-15T23:06:27.099Z,2.70
2023-12-15T23:08:59.003Z,3.10
2023-12-15T23:11:30.929Z,2.47
2023-12-15T23:14:03.434Z,3.25
2023-12-15T23:16:38.119Z,2.80
2023-12-15T23:19:13.040Z,3.72
2023-12-15T23:21:46.896Z,8.50
2023-12-15T23:24:18.956Z,2.70
2023-12-15T23:26:51.150Z,3.22
2023-12-15T23:29:23.240Z,3.00
2023-12-15T23:31:55.126Z,3.33
2023-12-15T23:34:27.391Z,2.85
2023-12-15T23:36:59.430Z,2.80
2023-12-15T23:39:31.861Z,3.35
2023-12-15T23:42:04.100Z,3.63
2023-12-15T23:44:36.067Z,3.65
2023-12-15T23:47:07.977Z,3.50
2023-12-15T23:49:40.097Z,3.55
2023-12-15T23:52:12.167Z,3.72
2023-12-15T23:54:44.520Z,3.33
2023-12-15T23:57:16.608Z,3.28
2023-12-15T23:59:49.367Z,3.33
